createdAt,value
2017-07-14T00:00:36.424Z,4.60
2017-07-14T00:03:03.092Z,5.20
2017-07-14T00:05:29.805Z,5.28
2017-07-14T00:07:56.545Z,6.12
2017-07-14T00:10:23.289Z,5.07
2017-07-14T00:12:49.932Z,5.15
2017-07-14T00:15:16.577Z,5.62
2017-07-14T00:17:43.304Z,5.85
2017-07-14T00:20:10.575Z,5.43
2017-07-14T00:22:37.216Z,5.40
2017-07-14T00:25:03.942Z,5.43
2017-07-14T00:27:30.679Z,5.40
2017-07-14T00:29:57.320Z,5.57
2017-07-14T00:32:24.060Z,5.68
2017-07-14T00:34:50.701Z,5.20
2017-07-14T00:37:17.346Z,4.87
2017-07-14T00:39:44.008Z,6.03
2017-07-14T00:42:10.723Z,5.55
2017-07-14T00:44:37.460Z,5.07
2017-07-14T00:47:04.200Z,5.45
2017-07-14T00:49:30.845Z,5.80
2017-07-14T00:51:57.489Z,5.50
2017-07-14T00:54:24.153Z,5.45
2017-07-14T00:56:50.973Z,5.62
2017-07-14T00:59:17.616Z,6.15
2017-07-14T01:01:44.273Z,6.10
2017-07-14T01:04:10.984Z,5.80
2017-07-14T01:06:37.730Z,5.32
2017-07-14T01:09:04.478Z,5.30
2017-07-14T01:11:31.138Z,5.60
2017-07-14T01:13:57.808Z,5.78
2017-07-14T01:16:24.498Z,5.20
2017-07-14T01:18:51.140Z,5.70
2017-07-14T01:21:17.870Z,5.75
2017-07-14T01:23:44.826Z,5.35
2017-07-14T01:26:11.559Z,5.70
2017-07-14T01:28:38.218Z,5.47
2017-07-14T01:31:04.942Z,4.62
2017-07-14T01:33:31.596Z,4.87
2017-07-14T01:35:58.331Z,5.10
2017-07-14T01:38:25.062Z,5.20
2017-07-14T01:40:51.793Z,5.25
2017-07-14T01:43:18.442Z,4.82
2017-07-14T01:45:45.131Z,5.30
2017-07-14T01:48:11.787Z,5.62
2017-07-14T01:50:38.434Z,5.35
2017-07-14T01:53:05.196Z,5.07
2017-07-14T01:55:31.935Z,5.80
2017-07-14T01:57:58.700Z,5.65
2017-07-14T02:00:25.364Z,5.60
2017-07-14T02:02:52.060Z,6.50
2017-07-14T02:05:18.799Z,7.00
2017-07-14T02:07:45.473Z,5.78
2017-07-14T02:10:12.134Z,5.82
2017-07-14T02:12:38.840Z,5.30
2017-07-14T02:15:05.539Z,5.18
2017-07-14T02:17:32.215Z,6.55
2017-07-14T02:19:58.955Z,7.75
2017-07-14T02:22:25.620Z,7.70
2017-07-14T02:24:52.260Z,7.25
2017-07-14T02:27:18.979Z,6.93
2017-07-14T02:29:45.923Z,7.90
2017-07-14T02:32:12.569Z,6.25
2017-07-14T02:34:39.227Z,7.07
2017-07-14T02:37:05.907Z,7.45
2017-07-14T02:39:32.556Z,8.00
2017-07-14T02:41:59.327Z,7.95
2017-07-14T02:44:26.054Z,7.10
2017-07-14T02:46:52.696Z,7.47
2017-07-14T02:49:19.336Z,7.57
2017-07-14T02:51:46.068Z,6.80
2017-07-14T02:54:12.726Z,6.00
2017-07-14T02:56:39.377Z,6.70
2017-07-14T02:59:06.094Z,7.20
2017-07-14T03:01:32.842Z,5.90
2017-07-14T03:03:59.508Z,6.95
2017-07-14T03:06:26.188Z,7.25
2017-07-14T03:08:52.871Z,6.90
2017-07-14T03:11:19.588Z,8.13
2017-07-14T03:13:46.358Z,7.10
2017-07-14T03:16:12.996Z,6.45
2017-07-14T03:18:39.718Z,6.72
2017-07-14T03:21:06.395Z,9.35
2017-07-14T03:23:33.052Z,14.90
2017-07-14T03:25:59.740Z,15.82
2017-07-14T03:28:26.404Z,20.27
2017-07-14T03:30:53.056Z,17.62
2017-07-14T03:33:19.721Z,12.80
2017-07-14T03:35:46.499Z,9.82
2017-07-14T03:38:13.251Z,6.80
2017-07-14T03:40:39.901Z,7.62
2017-07-14T03:43:06.626Z,6.57
2017-07-14T03:45:33.356Z,6.62
2017-07-14T03:48:00.114Z,6.70
2017-07-14T03:50:26.892Z,6.75
2017-07-14T03:52:53.587Z,8.13
2017-07-14T03:55:20.338Z,7.43
2017-07-14T03:57:47.018Z,6.60
2017-07-14T04:00:13.705Z,7.32
2017-07-14T04:02:40.457Z,6.60
2017-07-14T04:05:07.204Z,8.10
2017-07-14T04:07:33.875Z,8.40
2017-07-14T04:10:00.583Z,9.40
2017-07-14T04:12:27.268Z,8.95
2017-07-14T04:14:53.960Z,6.78
2017-07-14T04:17:20.627Z,8.05
2017-07-14T04:19:47.441Z,6.00
2017-07-14T04:22:14.080Z,7.50
2017-07-14T04:24:40.826Z,7.53
2017-07-14T04:27:07.552Z,7.72
2017-07-14T04:29:34.304Z,8.60
2017-07-14T04:32:00.963Z,8.30
2017-07-14T04:34:27.625Z,7.57
2017-07-14T04:36:54.311Z,9.80
2017-07-14T04:39:21.067Z,10.18
2017-07-14T04:41:47.814Z,9.20
2017-07-14T04:44:14.475Z,8.88
2017-07-14T04:46:41.138Z,9.27
2017-07-14T04:49:07.826Z,7.57
2017-07-14T04:51:34.487Z,8.05
2017-07-14T04:54:01.206Z,7.40
2017-07-14T04:56:27.885Z,8.07
2017-07-14T04:58:54.689Z,8.38
2017-07-14T05:01:21.369Z,8.35
2017-07-14T05:03:48.132Z,7.35
2017-07-14T05:06:14.780Z,7.37
2017-07-14T05:08:41.576Z,8.10
2017-07-14T05:11:08.670Z,8.45
2017-07-14T05:13:35.356Z,8.63
2017-07-14T05:16:03.523Z,6.72
2017-07-14T05:18:30.568Z,8.13
2017-07-14T05:20:58.747Z,8.00
2017-07-14T05:23:26.609Z,7.35
2017-07-14T05:25:54.683Z,7.25
2017-07-14T05:28:21.431Z,7.25
2017-07-14T05:30:48.164Z,7.10
2017-07-14T05:33:15.316Z,6.75
2017-07-14T05:35:42.147Z,7.43
2017-07-14T05:38:08.788Z,6.50
2017-07-14T05:40:35.461Z,6.47
2017-07-14T05:43:02.119Z,6.87
2017-07-14T05:45:28.841Z,7.95
2017-07-14T05:47:55.763Z,8.02
2017-07-14T05:50:22.413Z,7.97
2017-07-14T05:52:49.961Z,7.97
2017-07-14T05:55:16.701Z,7.65
2017-07-14T05:57:43.456Z,7.32
2017-07-14T06:00:10.115Z,8.10
2017-07-14T06:02:36.790Z,7.35
2017-07-14T06:05:03.436Z,7.15
2017-07-14T06:07:30.110Z,7.80
2017-07-14T06:09:56.951Z,9.50
2017-07-14T06:12:23.681Z,7.70
2017-07-14T06:14:50.329Z,7.95
2017-07-14T06:17:16.988Z,6.85
2017-07-14T06:19:43.650Z,8.30
2017-07-14T06:22:10.340Z,7.87
2017-07-14T06:24:37.011Z,8.07
2017-07-14T06:27:03.740Z,8.20
2017-07-14T06:29:30.574Z,7.97
2017-07-14T06:31:57.238Z,8.30
2017-07-14T06:34:23.896Z,7.18
2017-07-14T06:36:50.554Z,8.63
2017-07-14T06:39:17.231Z,9.02
2017-07-14T06:41:43.940Z,8.75
2017-07-14T06:44:10.721Z,8.15
2017-07-14T06:46:37.466Z,7.50
2017-07-14T06:49:04.188Z,7.55
2017-07-14T06:51:30.852Z,7.80
2017-07-14T06:53:57.538Z,8.57
2017-07-14T06:56:24.228Z,6.93
2017-07-14T06:58:50.968Z,6.37
2017-07-14T07:01:17.651Z,6.80
2017-07-14T07:03:44.332Z,6.47
2017-07-14T07:06:11.098Z,6.05
2017-07-14T07:08:37.779Z,6.10
2017-07-14T07:11:04.435Z,6.80
2017-07-14T07:13:31.096Z,7.20
2017-07-14T07:15:57.765Z,6.40
2017-07-14T07:18:24.417Z,6.72
2017-07-14T07:20:51.061Z,5.87
2017-07-14T07:23:17.748Z,6.10
2017-07-14T07:25:44.384Z,5.55
2017-07-14T07:28:11.033Z,5.50
2017-07-14T07:30:37.710Z,6.07
2017-07-14T07:33:04.367Z,5.93
2017-07-14T07:35:31.029Z,4.50
2017-07-14T07:37:57.808Z,6.22
2017-07-14T07:40:24.452Z,5.40
2017-07-14T07:42:51.097Z,4.80
2017-07-14T07:45:17.792Z,5.20
2017-07-14T07:47:50.111Z,5.15
2017-07-14T07:50:16.774Z,4.85
2017-07-14T07:52:43.454Z,5.45
2017-07-14T07:55:10.223Z,5.20
2017-07-14T07:57:36.877Z,5.85
2017-07-14T08:00:03.536Z,5.47
2017-07-14T08:02:46.945Z,5.05
2017-07-14T08:05:13.656Z,3.83
2017-07-14T08:07:40.423Z,4.30
2017-07-14T08:10:07.146Z,4.20
2017-07-14T08:12:33.821Z,3.80
2017-07-14T08:15:00.468Z,4.00
2017-07-14T08:17:27.113Z,4.22
2017-07-14T08:19:53.916Z,3.80
2017-07-14T08:22:20.564Z,4.22
2017-07-14T08:24:47.280Z,4.07
2017-07-14T08:27:13.955Z,4.30
2017-07-14T08:29:40.614Z,3.55
2017-07-14T08:32:07.275Z,4.93
2017-07-14T08:34:34.045Z,4.30
2017-07-14T08:37:00.684Z,4.45
2017-07-14T08:39:27.333Z,4.03
2017-07-14T08:41:53.989Z,3.97
2017-07-14T08:44:20.716Z,3.95
2017-07-14T08:46:47.438Z,4.40
2017-07-14T08:49:14.111Z,4.90
2017-07-14T08:51:46.669Z,3.85
2017-07-14T08:54:13.471Z,4.03
2017-07-14T08:56:40.074Z,3.42
2017-07-14T08:59:06.674Z,3.70
2017-07-14T09:01:33.303Z,3.72
2017-07-14T09:03:59.902Z,3.87
2017-07-14T09:06:26.508Z,3.83
2017-07-14T09:08:53.130Z,3.45
2017-07-14T09:11:19.843Z,4.50
2017-07-14T09:13:46.473Z,5.45
2017-07-14T09:16:13.114Z,3.80
2017-07-14T09:18:39.724Z,3.97
2017-07-14T09:21:06.390Z,3.53
2017-07-14T09:23:33.019Z,4.10
2017-07-14T09:25:59.625Z,3.25
2017-07-14T09:28:26.227Z,3.58
2017-07-14T09:30:52.854Z,3.70
2017-07-14T09:33:19.491Z,3.62
2017-07-14T09:35:46.099Z,4.30
2017-07-14T09:38:12.723Z,3.90
2017-07-14T09:40:39.328Z,4.62
2017-07-14T09:43:05.951Z,3.47
2017-07-14T09:45:32.842Z,3.03
2017-07-14T09:47:59.714Z,3.60
2017-07-14T09:50:26.541Z,3.40
2017-07-14T09:52:53.738Z,3.17
2017-07-14T09:55:21.487Z,3.20
2017-07-14T09:57:48.893Z,3.45
2017-07-14T10:00:15.966Z,3.25
2017-07-14T10:02:43.195Z,3.08
2017-07-14T10:05:10.190Z,2.85
2017-07-14T10:07:36.883Z,3.35
2017-07-14T10:10:03.587Z,3.15
2017-07-14T10:12:30.407Z,2.75
2017-07-14T10:14:57.116Z,3.58
2017-07-14T10:17:25.770Z,3.45
2017-07-14T10:19:52.442Z,2.90
2017-07-14T10:22:19.057Z,2.65
2017-07-14T10:24:45.726Z,3.08
2017-07-14T10:27:12.548Z,2.35
2017-07-14T10:29:40.115Z,3.00
2017-07-14T10:32:07.982Z,3.20
2017-07-14T10:34:34.813Z,2.80
2017-07-14T10:37:01.430Z,3.15
2017-07-14T10:39:28.309Z,3.35
2017-07-14T10:41:55.002Z,3.30
2017-07-14T10:44:21.646Z,2.75
2017-07-14T10:46:51.806Z,2.40
2017-07-14T10:49:18.961Z,2.37
2017-07-14T10:51:45.703Z,2.37
2017-07-14T10:54:12.417Z,3.00
2017-07-14T10:56:39.033Z,2.62
2017-07-14T10:59:05.928Z,2.22
2017-07-14T11:01:32.623Z,2.00
2017-07-14T11:03:59.222Z,2.05
2017-07-14T11:06:26.776Z,2.40
2017-07-14T11:08:53.447Z,2.50
2017-07-14T11:11:20.291Z,2.45
2017-07-14T11:13:47.436Z,2.00
2017-07-14T11:16:14.899Z,1.65
2017-07-14T11:18:41.560Z,2.15
2017-07-14T11:21:09.775Z,1.58
2017-07-14T11:23:36.373Z,2.22
2017-07-14T11:26:02.978Z,1.65
2017-07-14T11:28:29.646Z,1.90
2017-07-14T11:30:56.250Z,2.10
2017-07-14T11:33:22.921Z,1.58
2017-07-14T11:35:49.546Z,1.48
2017-07-14T11:38:16.163Z,1.62
2017-07-14T11:40:42.838Z,1.83
2017-07-14T11:43:09.462Z,2.35
2017-07-14T11:45:36.123Z,1.55
2017-07-14T11:48:02.753Z,2.30
2017-07-14T11:50:29.398Z,1.40
2017-07-14T11:52:56.036Z,1.85
2017-07-14T11:55:22.635Z,1.55
2017-07-14T11:57:49.256Z,1.58
2017-07-14T12:00:15.855Z,1.98
2017-07-14T12:02:42.490Z,1.98
2017-07-14T12:05:09.115Z,1.45
2017-07-14T12:07:35.766Z,2.05
2017-07-14T12:10:02.402Z,2.47
2017-07-14T12:12:29.219Z,1.98
2017-07-14T12:14:55.832Z,1.83
2017-07-14T12:17:22.431Z,1.50
2017-07-14T12:19:49.050Z,1.83
2017-07-14T12:22:15.702Z,1.37
2017-07-14T12:24:42.301Z,2.03
2017-07-14T12:27:08.982Z,1.75
2017-07-14T12:29:35.622Z,1.60
2017-07-14T12:32:02.226Z,1.37
2017-07-14T12:34:28.850Z,1.37
2017-07-14T12:36:55.547Z,1.92
2017-07-14T12:39:22.183Z,2.10
2017-07-14T12:41:48.918Z,1.60
2017-07-14T12:44:15.521Z,1.33
2017-07-14T12:46:42.198Z,1.60
2017-07-14T12:49:08.829Z,1.90
2017-07-14T12:51:35.440Z,2.20
2017-07-14T12:54:02.052Z,1.60
2017-07-14T12:56:28.754Z,1.70
2017-07-14T12:58:55.402Z,1.52
2017-07-14T13:01:22.015Z,1.67
2017-07-14T13:03:48.675Z,1.60
2017-07-14T13:06:15.286Z,1.80
2017-07-14T13:08:41.945Z,1.70
2017-07-14T13:11:08.575Z,1.40
2017-07-14T13:13:35.190Z,2.17
2017-07-14T13:16:01.794Z,1.80
2017-07-14T13:18:28.417Z,2.22
2017-07-14T13:20:55.027Z,1.90
2017-07-14T13:23:21.626Z,2.20
2017-07-14T13:25:48.252Z,2.03
2017-07-14T13:28:14.858Z,1.70
2017-07-14T13:30:41.462Z,2.00
2017-07-14T13:33:08.138Z,1.80
2017-07-14T13:35:34.773Z,1.62
2017-07-14T13:38:01.418Z,2.10
2017-07-14T13:40:28.043Z,1.90
2017-07-14T13:42:54.694Z,1.87
2017-07-14T13:45:21.295Z,1.83
2017-07-14T13:47:48.000Z,2.00
2017-07-14T13:50:14.714Z,1.80
2017-07-14T13:52:41.352Z,2.65
2017-07-14T13:55:07.971Z,2.12
2017-07-14T13:57:34.570Z,2.30
2017-07-14T14:00:01.175Z,3.20
2017-07-14T14:02:27.793Z,2.72
2017-07-14T14:04:54.442Z,2.60
2017-07-14T14:07:21.046Z,2.20
2017-07-14T14:09:47.718Z,1.90
2017-07-14T14:12:14.335Z,2.20
2017-07-14T14:14:41.005Z,1.80
2017-07-14T14:17:07.618Z,2.27
2017-07-14T14:19:34.279Z,2.40
2017-07-14T14:22:00.920Z,1.90
2017-07-14T14:24:27.539Z,2.30
2017-07-14T14:26:54.147Z,2.10
2017-07-14T14:29:20.838Z,2.50
2017-07-14T14:31:47.575Z,1.95
2017-07-14T14:34:14.178Z,2.37
2017-07-14T14:36:40.847Z,2.07
2017-07-14T14:39:07.475Z,1.63
2017-07-14T14:41:34.073Z,1.70
2017-07-14T14:44:00.674Z,1.70
2017-07-14T14:46:27.315Z,1.37
2017-07-14T14:48:53.946Z,1.67
2017-07-14T14:51:20.587Z,2.00
2017-07-14T14:53:47.206Z,1.53
2017-07-14T14:56:13.867Z,1.87
2017-07-14T14:58:40.503Z,1.30
2017-07-14T15:01:07.253Z,1.50
2017-07-14T15:03:33.849Z,1.30
2017-07-14T15:06:00.449Z,1.20
2017-07-14T15:08:27.070Z,1.07
2017-07-14T15:10:53.698Z,1.33
2017-07-14T15:13:20.334Z,1.40
2017-07-14T15:15:46.963Z,1.50
2017-07-14T15:18:13.619Z,1.27
2017-07-14T15:20:40.262Z,1.00
2017-07-14T15:23:06.878Z,1.10
2017-07-14T15:25:33.530Z,1.23
2017-07-14T15:28:00.138Z,1.20
2017-07-14T15:30:26.811Z,1.10
2017-07-14T15:32:53.454Z,0.87
2017-07-14T15:35:20.063Z,1.20
2017-07-14T15:37:46.726Z,1.13
2017-07-14T15:40:13.343Z,1.30
2017-07-14T15:42:40.011Z,1.07
2017-07-14T15:45:06.639Z,0.83
2017-07-14T15:47:33.281Z,1.47
2017-07-14T15:49:59.883Z,1.57
2017-07-14T15:52:26.504Z,1.20
2017-07-14T15:54:53.113Z,1.30
2017-07-14T15:57:19.739Z,1.20
2017-07-14T15:59:46.362Z,1.40
2017-07-14T16:02:12.979Z,1.65
2017-07-14T16:04:39.655Z,1.87
2017-07-14T16:07:06.295Z,1.90
2017-07-14T16:09:32.938Z,1.85
2017-07-14T16:11:59.539Z,2.05
2017-07-14T16:14:26.210Z,1.80
2017-07-14T16:16:52.815Z,1.80
2017-07-14T16:19:19.495Z,1.73
2017-07-14T16:21:46.238Z,1.83
2017-07-14T16:24:12.845Z,3.37
2017-07-14T16:26:39.452Z,1.80
2017-07-14T16:29:06.075Z,2.08
2017-07-14T16:31:32.687Z,1.90
2017-07-14T16:33:59.303Z,2.00
2017-07-14T16:36:25.922Z,2.10
2017-07-14T16:38:52.603Z,2.55
2017-07-14T16:41:19.203Z,2.75
2017-07-14T16:43:45.879Z,2.08
2017-07-14T16:46:12.518Z,2.20
2017-07-14T16:48:39.127Z,1.83
2017-07-14T16:51:05.743Z,1.90
2017-07-14T16:53:32.350Z,1.98
2017-07-14T16:55:58.954Z,2.22
2017-07-14T16:58:25.587Z,2.10
2017-07-14T17:00:52.196Z,1.50
2017-07-14T17:03:18.897Z,1.58
2017-07-14T17:05:45.515Z,1.77
2017-07-14T17:08:12.127Z,1.77
2017-07-14T17:10:38.727Z,1.58
2017-07-14T17:13:05.442Z,1.75
2017-07-14T17:15:32.086Z,1.50
2017-07-14T17:17:58.687Z,1.90
2017-07-14T17:20:25.319Z,1.83
2017-07-14T17:22:51.998Z,2.20
2017-07-14T17:25:18.608Z,2.00
2017-07-14T17:27:45.223Z,1.60
2017-07-14T17:30:11.930Z,2.40
2017-07-14T17:32:38.537Z,2.65
2017-07-14T17:35:05.155Z,2.30
2017-07-14T17:37:31.837Z,2.65
2017-07-14T17:39:58.439Z,2.50
2017-07-14T17:42:25.062Z,2.42
2017-07-14T17:44:51.695Z,2.95
2017-07-14T17:47:18.294Z,3.15
2017-07-14T17:49:44.923Z,3.60
2017-07-14T17:52:11.562Z,3.33
2017-07-14T17:54:38.206Z,2.40
2017-07-14T17:57:04.863Z,3.17
2017-07-14T17:59:31.463Z,2.85
2017-07-14T18:01:58.065Z,2.90
2017-07-14T18:04:24.723Z,2.80
2017-07-14T18:06:51.398Z,3.37
2017-07-14T18:09:18.011Z,2.60
2017-07-14T18:11:44.627Z,2.80
2017-07-14T18:14:11.232Z,2.78
2017-07-14T18:16:37.839Z,2.80
2017-07-14T18:19:04.495Z,2.92
2017-07-14T18:21:31.098Z,3.22
2017-07-14T18:23:57.694Z,2.90
2017-07-14T18:26:24.411Z,4.03
2017-07-14T18:28:51.011Z,3.80
2017-07-14T18:31:17.686Z,3.65
2017-07-14T18:33:44.335Z,3.10
2017-07-14T18:36:10.938Z,3.30
2017-07-14T18:38:37.539Z,3.45
2017-07-14T18:41:04.246Z,3.25
2017-07-14T18:43:30.887Z,2.83
2017-07-14T18:45:57.522Z,3.50
2017-07-14T18:48:24.138Z,3.25
2017-07-14T18:50:50.741Z,3.80
2017-07-14T18:53:17.438Z,4.10
2017-07-14T18:55:44.078Z,3.60
2017-07-14T18:58:10.717Z,3.40
2017-07-14T19:00:37.318Z,3.62
2017-07-14T19:03:03.938Z,4.03
2017-07-14T19:05:30.543Z,4.93
2017-07-14T19:07:57.179Z,4.65
2017-07-14T19:10:23.794Z,3.55
2017-07-14T19:12:50.455Z,3.87
2017-07-14T19:15:17.059Z,4.78
2017-07-14T19:17:43.686Z,5.00
2017-07-14T19:20:10.293Z,3.90
2017-07-14T19:22:36.910Z,4.00
2017-07-14T19:25:03.525Z,4.50
2017-07-14T19:27:30.136Z,5.37
2017-07-14T19:29:56.730Z,5.82
2017-07-14T19:32:23.361Z,6.28
2017-07-14T19:34:49.952Z,5.70
2017-07-14T19:37:16.567Z,6.45
2017-07-14T19:39:43.197Z,6.00
2017-07-14T19:42:09.803Z,7.47
2017-07-14T19:44:36.407Z,6.43
2017-07-14T19:47:03.053Z,7.10
2017-07-14T19:49:29.739Z,5.65
2017-07-14T19:51:56.371Z,5.37
2017-07-14T19:54:23.019Z,4.25
2017-07-14T19:56:49.622Z,4.72
2017-07-14T19:59:16.231Z,4.45
2017-07-14T20:01:42.870Z,6.53
2017-07-14T20:04:09.466Z,6.82
2017-07-14T20:06:36.065Z,6.57
2017-07-14T20:09:02.747Z,7.10
2017-07-14T20:11:29.346Z,5.85
2017-07-14T20:13:55.947Z,5.30
2017-07-14T20:16:22.663Z,4.28
2017-07-14T20:18:49.262Z,4.47
2017-07-14T20:21:15.938Z,4.12
2017-07-14T20:23:42.595Z,4.25
2017-07-14T20:26:09.214Z,4.32
2017-07-14T20:28:35.854Z,5.00
2017-07-14T20:31:02.486Z,5.20
2017-07-14T20:33:29.107Z,5.90
2017-07-14T20:35:55.708Z,5.12
2017-07-14T20:38:22.343Z,4.55
2017-07-14T20:40:48.942Z,3.37
2017-07-14T20:43:15.587Z,3.50
2017-07-14T20:45:42.226Z,4.93
2017-07-14T20:48:08.826Z,4.43
2017-07-14T20:50:35.506Z,4.35
2017-07-14T20:53:02.127Z,4.25
2017-07-14T20:55:28.730Z,5.10
2017-07-14T20:57:55.334Z,4.18
2017-07-14T21:00:22.066Z,4.60
2017-07-14T21:02:48.698Z,4.75
2017-07-14T21:05:15.342Z,4.62
2017-07-14T21:07:41.975Z,4.90
2017-07-14T21:10:08.623Z,4.45
2017-07-14T21:12:35.258Z,4.75
2017-07-14T21:15:01.894Z,6.05
2017-07-14T21:17:28.507Z,13.65
2017-07-14T21:19:55.174Z,39.88
2017-07-14T21:22:21.802Z,49.05
2017-07-14T21:24:48.449Z,38.95
2017-07-14T21:27:15.093Z,37.33
2017-07-14T21:29:41.730Z,111.75
2017-07-14T21:32:08.342Z,93.70
2017-07-14T21:34:34.970Z,114.70
2017-07-14T21:37:01.601Z,82.85
2017-07-14T21:39:28.213Z,85.70
2017-07-14T21:41:54.831Z,112.80
2017-07-14T21:44:21.566Z,117.35
2017-07-14T21:46:48.185Z,86.87
2017-07-14T21:49:14.803Z,75.65
2017-07-14T21:51:41.446Z,97.68
2017-07-14T21:54:08.059Z,93.15
2017-07-14T21:56:34.674Z,89.25
2017-07-14T21:59:01.315Z,91.10
2017-07-14T22:01:28.038Z,92.15
2017-07-14T22:03:54.674Z,96.50
2017-07-14T22:06:21.418Z,92.65
2017-07-14T22:08:48.071Z,95.53
2017-07-14T22:11:14.687Z,93.10
2017-07-14T22:13:41.342Z,85.55
2017-07-14T22:16:07.962Z,88.40
2017-07-14T22:18:34.574Z,92.00
2017-07-14T22:21:01.269Z,85.12
2017-07-14T22:23:28.002Z,100.78
2017-07-14T22:25:55.095Z,90.40
2017-07-14T22:28:21.794Z,87.72
2017-07-14T22:30:48.425Z,89.62
2017-07-14T22:33:15.067Z,78.45
2017-07-14T22:35:41.699Z,74.65
2017-07-14T22:38:08.315Z,81.35
2017-07-14T22:40:34.926Z,71.15
2017-07-14T22:43:01.559Z,62.20
2017-07-14T22:45:28.162Z,71.07
2017-07-14T22:47:54.858Z,68.20
2017-07-14T22:50:21.539Z,70.40
2017-07-14T22:52:48.175Z,72.82
2017-07-14T22:55:14.797Z,67.65
2017-07-14T22:57:41.426Z,66.25
2017-07-14T23:00:08.090Z,68.85
2017-07-14T23:02:34.711Z,75.15
2017-07-14T23:05:01.334Z,70.57
2017-07-14T23:07:27.947Z,64.90
2017-07-14T23:09:54.651Z,59.72
2017-07-14T23:12:21.391Z,47.92
2017-07-14T23:14:47.998Z,54.45
2017-07-14T23:17:14.607Z,42.22
2017-07-14T23:19:41.238Z,42.35
2017-07-14T23:22:08.049Z,36.70
2017-07-14T23:24:34.687Z,34.60
2017-07-14T23:27:01.322Z,46.15
2017-07-14T23:29:27.932Z,35.40
2017-07-14T23:31:54.610Z,36.30
2017-07-14T23:34:21.238Z,41.63
2017-07-14T23:36:47.853Z,26.98
2017-07-14T23:39:14.519Z,37.58
2017-07-14T23:41:41.263Z,28.95
2017-07-14T23:44:07.929Z,29.92
2017-07-14T23:46:34.526Z,27.37
2017-07-14T23:49:01.160Z,27.98
2017-07-14T23:51:27.775Z,32.20
2017-07-14T23:53:54.454Z,30.00
2017-07-14T23:56:21.088Z,32.67
2017-07-14T23:58:47.693Z,35.50
